createdAt,value
2022-09-28T06:27:21.407Z,99850.75
2022-09-28T06:29:47.983Z,99857.41
2022-09-28T06:32:14.554Z,99860.47
2022-09-28T06:34:44.139Z,99869.91
2022-09-28T06:37:10.715Z,99835.97
2022-09-28T06:39:37.359Z,99864.44
2022-09-28T06:42:04.411Z,99860.00
2022-09-28T06:44:32.327Z,99848.97
2022-09-28T06:46:58.924Z,99852.13
2022-09-28T06:49:29.295Z,99851.88
2022-09-28T06:51:56.262Z,99855.91
2022-09-28T06:54:25.828Z,99859.44
2022-09-28T06:56:54.015Z,99851.41
2022-09-28T06:59:20.609Z,99832.84
2022-09-28T07:01:47.245Z,99849.75
2022-09-28T07:04:14.253Z,99851.69
2022-09-28T07:06:47.146Z,99837.66
2022-09-28T07:09:30.507Z,99841.81
2022-09-28T07:11:58.915Z,99845.94
2022-09-28T07:14:46.101Z,99841.75
2022-09-28T07:17:13.991Z,99847.00
2022-09-28T07:19:41.294Z,99832.50
2022-09-28T07:22:08.004Z,99847.13
2022-09-28T07:24:36.188Z,99830.53
2022-09-28T07:27:05.635Z,99850.28
2022-09-28T07:29:32.199Z,99835.59
2022-09-28T07:32:00.245Z,99836.34
2022-09-28T07:34:27.185Z,99827.69
2022-09-28T07:36:57.523Z,99818.88
2022-09-28T07:39:25.371Z,99829.88
2022-09-28T07:41:56.681Z,99823.56
2022-09-28T07:44:26.523Z,99805.34
2022-09-28T07:46:53.071Z,99818.41
2022-09-28T07:49:22.499Z,99823.56
2022-09-28T07:51:50.028Z,99831.97
2022-09-28T07:54:17.938Z,99825.97
2022-09-28T07:56:44.506Z,99823.41
2022-09-28T07:59:11.420Z,99815.66
2022-09-28T08:01:38.033Z,99813.84
2022-09-28T08:04:04.750Z,99815.81
2022-09-28T08:06:34.562Z,99820.84
2022-09-28T08:09:01.848Z,99822.59
2022-09-28T08:11:28.447Z,99812.28
2022-09-28T08:13:55.555Z,99811.66
2022-09-28T08:16:22.270Z,99825.09
2022-09-28T08:18:49.518Z,99818.28
2022-09-28T08:21:34.824Z,99815.50
2022-09-28T08:24:01.654Z,99820.50
2022-09-28T08:26:29.236Z,99816.28
2022-09-28T08:28:56.908Z,99823.72
2022-09-28T08:31:23.536Z,99814.28
2022-09-28T08:33:53.801Z,99816.50
2022-09-28T08:36:26.065Z,99802.59
2022-09-28T08:38:52.688Z,99799.91
2022-09-28T08:41:44.471Z,99805.19
2022-09-28T08:44:25.873Z,99816.69
2022-09-28T08:46:59.028Z,99803.75
2022-09-28T08:49:44.150Z,99807.28
2022-09-28T08:52:26.153Z,99806.69
2022-09-28T08:55:10.812Z,99812.16
2022-09-28T08:57:52.829Z,99808.09
2022-09-28T09:00:28.187Z,99798.59
2022-09-28T09:02:54.957Z,99776.16
2022-09-28T09:05:35.977Z,99796.88
2022-09-28T09:08:23.921Z,99793.47
2022-09-28T09:11:14.635Z,99786.69
2022-09-28T09:14:06.207Z,99784.91
2022-09-28T09:20:16.425Z,99784.09
2022-09-28T09:22:51.662Z,99779.38
2022-09-28T09:25:57.452Z,99779.25
2022-09-28T09:28:26.697Z,99788.00
2022-09-28T09:31:20.697Z,99770.63
2022-09-28T09:34:03.911Z,99779.63
2022-09-28T09:37:00.256Z,99777.88
2022-09-28T09:39:43.707Z,99765.72
2022-09-28T09:42:15.851Z,99780.44
2022-09-28T09:44:59.681Z,99781.28
2022-09-28T09:47:36.136Z,99749.59
2022-09-28T09:50:18.402Z,99766.50
2022-09-28T09:52:57.397Z,99757.09
2022-09-28T09:55:46.198Z,99772.66
2022-09-28T09:58:24.246Z,99765.66
2022-09-28T10:00:54.519Z,99765.72
2022-09-28T10:03:29.276Z,99770.47
2022-09-28T10:06:16.789Z,99768.66
2022-09-28T10:08:52.858Z,99766.28
2022-09-28T10:11:25.694Z,99772.34
2022-09-28T10:13:52.292Z,99766.00
2022-09-28T10:16:20.436Z,99766.16
2022-09-28T10:18:49.657Z,99768.56
2022-09-28T10:21:19.981Z,99780.22
2022-09-28T10:23:50.635Z,99766.78
2022-09-28T10:26:29.404Z,99763.16
2022-09-28T10:28:59.405Z,99751.25
2022-09-28T10:31:43.954Z,99761.66
2022-09-28T10:34:14.969Z,99758.09
2022-09-28T10:37:01.038Z,99748.06
2022-09-28T10:39:56.588Z,99759.41
2022-09-28T10:42:27.235Z,99750.72
2022-09-28T10:45:03.782Z,99750.72
2022-09-28T10:47:32.761Z,99714.44
2022-09-28T10:50:00.915Z,99741.22
2022-09-28T10:55:21.468Z,99754.53
2022-09-28T10:57:48.484Z,99745.91
2022-09-28T11:00:42.244Z,99752.56
2022-09-28T11:03:25.371Z,99751.75
2022-09-28T11:06:02.842Z,99748.06
2022-09-28T11:08:39.428Z,99745.31
2022-09-28T11:11:11.896Z,99745.44
2022-09-28T11:13:51.364Z,99739.59
2022-09-28T11:16:31.197Z,99738.78
2022-09-28T11:19:04.223Z,99740.38
2022-09-28T11:21:40.520Z,99747.91
2022-09-28T11:24:19.709Z,99725.50
2022-09-28T11:26:49.915Z,99739.31
2022-09-28T11:29:39.062Z,99679.53
2022-09-28T11:32:06.533Z,99745.41
2022-09-28T11:34:59.275Z,99740.38
2022-09-28T11:37:29.920Z,99738.66
2022-09-28T11:40:03.543Z,99735.84
2022-09-28T11:42:51.765Z,99744.56
2022-09-28T11:45:40.109Z,99733.56
2022-09-28T11:48:15.668Z,99735.31
2022-09-28T11:51:08.492Z,99730.34
2022-09-28T11:53:40.369Z,99726.38
2022-09-28T11:56:30.367Z,99723.00
2022-09-28T11:59:28.608Z,99730.31
2022-09-28T12:01:59.742Z,99725.44
2022-09-28T12:04:28.977Z,99729.38
2022-09-28T12:07:16.030Z,99732.75
2022-09-28T12:10:03.796Z,99736.28
2022-09-28T12:13:00.833Z,99728.66
2022-09-28T12:16:15.062Z,99720.84
2022-09-28T12:19:13.780Z,99720.09
2022-09-28T12:21:51.251Z,99716.91
2022-09-28T12:24:26.533Z,99728.00
2022-09-28T12:27:14.596Z,99729.94
2022-09-28T12:30:06.115Z,99728.00
2022-09-28T12:32:45.861Z,99710.13
2022-09-28T12:35:27.441Z,99678.00
2022-09-28T12:38:27.105Z,99722.47
2022-09-28T12:41:16.782Z,99721.84
2022-09-28T12:43:54.690Z,99714.06
2022-09-28T12:46:49.822Z,99712.41
2022-09-28T12:52:23.684Z,99650.25
2022-09-28T12:55:16.476Z,99710.28
2022-09-28T12:58:03.666Z,99712.28
2022-09-28T13:00:54.792Z,99703.41
2022-09-28T13:03:45.880Z,99705.16
2022-09-28T13:06:21.199Z,99703.50
2022-09-28T13:09:06.017Z,99704.44
2022-09-28T13:12:03.168Z,99698.13
2022-09-28T13:14:32.480Z,99711.53
2022-09-28T13:17:16.083Z,99706.19
2022-09-28T13:19:50.749Z,99715.09
2022-09-28T13:22:50.032Z,99708.91
2022-09-28T13:25:23.355Z,99715.25
2022-09-28T13:28:02.876Z,99716.13
2022-09-28T13:30:31.843Z,99714.56
2022-09-28T13:33:01.759Z,99726.03
2022-09-28T13:35:28.955Z,99715.59
2022-09-28T13:38:19.843Z,99720.66
2022-09-28T13:41:04.679Z,99727.97
2022-09-28T13:43:50.927Z,99728.81
2022-09-28T13:46:39.000Z,99728.00
2022-09-28T13:49:11.492Z,99733.25
2022-09-28T13:51:55.478Z,99716.94
2022-09-28T13:54:41.534Z,99738.88
2022-09-28T13:57:26.954Z,99743.47
2022-09-28T14:00:29.649Z,99727.94
2022-09-28T14:03:01.626Z,99708.38
2022-09-28T14:06:03.942Z,99724.59
2022-09-28T14:08:34.936Z,99713.38
2022-09-28T14:11:25.608Z,99736.25
2022-09-28T14:14:07.463Z,99737.28
2022-09-28T14:16:39.930Z,99731.19
2022-09-28T14:19:12.848Z,99744.28
2022-09-28T14:21:51.336Z,99730.31
2022-09-28T14:24:36.646Z,99731.22
2022-09-28T14:27:33.358Z,99731.28
2022-09-28T14:30:20.289Z,99731.34
2022-09-28T14:33:00.731Z,99735.88
2022-09-28T14:35:50.497Z,99724.91
2022-09-28T14:38:38.740Z,99735.19
2022-09-28T14:41:10.168Z,99745.69
2022-09-28T14:43:45.793Z,99737.16
2022-09-28T14:46:14.471Z,99749.47
2022-09-28T14:48:51.993Z,99743.44
2022-09-28T14:51:28.933Z,99740.81
2022-09-28T14:54:27.679Z,99732.16
2022-09-28T14:57:00.053Z,99741.03
2022-09-28T14:59:36.284Z,99740.34
2022-09-28T15:02:12.446Z,99735.09
2022-09-28T15:04:51.094Z,99749.25
2022-09-28T15:07:26.973Z,99741.53
2022-09-28T15:09:57.773Z,99720.25
2022-09-28T15:12:29.604Z,99745.94
2022-09-28T15:14:59.508Z,99745.94
2022-09-28T15:17:39.233Z,99739.88
2022-09-28T15:20:18.039Z,99760.03
2022-09-28T15:22:49.611Z,99749.78
2022-09-28T15:25:22.183Z,99740.06
2022-09-28T15:28:02.369Z,99750.38
2022-09-28T15:30:33.878Z,99744.91
2022-09-28T15:33:20.585Z,99744.97
2022-09-28T15:35:54.742Z,99737.25
2022-09-28T15:38:21.399Z,99736.78
2022-09-28T15:40:48.337Z,99735.72
2022-09-28T15:43:29.203Z,99750.50
2022-09-28T15:46:04.721Z,99740.34
2022-09-28T15:48:48.287Z,99735.19
2022-09-28T15:51:16.234Z,99744.72
2022-09-28T15:53:53.307Z,99741.19
2022-09-28T15:56:20.055Z,99734.38
2022-09-28T15:59:16.214Z,99748.31
2022-09-28T16:01:43.870Z,99749.06
2022-09-28T16:04:39.360Z,99747.28
2022-09-28T16:07:21.050Z,99748.72
2022-09-28T16:10:15.396Z,99758.81
2022-09-28T16:12:46.589Z,99764.16
2022-09-28T16:15:29.201Z,99748.41
2022-09-28T16:18:02.695Z,99743.13
2022-09-28T16:20:38.953Z,99744.31
2022-09-28T16:23:17.341Z,99749.41
2022-09-28T16:26:03.588Z,99747.88
2022-09-28T16:28:34.594Z,99755.72
2022-09-28T16:31:22.617Z,99745.13
2022-09-28T16:33:52.536Z,99745.13
2022-09-28T16:36:19.131Z,99754.00
2022-09-28T16:38:50.215Z,99720.47
2022-09-28T16:41:20.960Z,99745.31
2022-09-28T16:43:48.146Z,99748.88
2022-09-28T16:46:17.811Z,99754.84
2022-09-28T16:48:49.440Z,99761.03
2022-09-28T16:51:20.505Z,99753.25
2022-09-28T16:54:06.286Z,99756.81
2022-09-28T16:56:34.219Z,99753.34
2022-09-28T16:59:02.279Z,99763.06
2022-09-28T17:01:31.337Z,99756.69
2022-09-28T17:03:58.137Z,99761.94
2022-09-28T17:06:25.395Z,99770.59
2022-09-28T17:08:56.722Z,99761.22
2022-09-28T17:11:25.239Z,99745.88
2022-09-28T17:13:52.363Z,99770.88
2022-09-28T17:16:42.624Z,99764.97
2022-09-28T17:19:18.273Z,99762.13
2022-09-28T17:21:45.032Z,99765.63
2022-09-28T17:24:12.025Z,99751.81
2022-09-28T17:26:40.235Z,99753.25
2022-09-28T17:29:16.534Z,99738.22
2022-09-28T17:32:09.337Z,99761.41
2022-09-28T17:34:35.956Z,99754.59
2022-09-28T17:37:02.518Z,99752.34
2022-09-28T17:39:29.270Z,99754.28
2022-09-28T17:41:55.894Z,99748.22
2022-09-28T17:44:22.464Z,99728.41
2022-09-28T17:46:51.272Z,99740.47
2022-09-28T17:49:18.775Z,99757.00
2022-09-28T17:51:45.637Z,99762.16
2022-09-28T17:54:13.717Z,99731.19
2022-09-28T17:56:40.355Z,99741.63
2022-09-28T17:59:10.673Z,99751.75
2022-09-28T18:01:41.541Z,99761.47
2022-09-28T18:04:15.926Z,99759.75
2022-09-28T18:06:54.592Z,99758.97
2022-09-28T18:09:25.319Z,99743.63
2022-09-28T18:12:01.312Z,99757.00
2022-09-28T18:14:28.604Z,99743.22
2022-09-28T18:16:58.008Z,99747.47
2022-09-28T18:19:28.563Z,99704.00
2022-09-28T18:21:58.722Z,99744.91
2022-09-28T18:24:26.341Z,99732.19
2022-09-28T18:26:54.494Z,99737.75
2022-09-28T18:29:22.449Z,99728.31
2022-09-28T18:34:39.950Z,99739.44
2022-09-28T18:37:11.924Z,99738.75
2022-09-28T18:40:47.134Z,99743.28
2022-09-28T18:43:18.372Z,99744.16
2022-09-28T18:45:44.999Z,99734.47
2022-09-28T18:48:11.623Z,99728.56
2022-09-28T18:50:39.462Z,99730.06
2022-09-28T18:53:38.912Z,99722.41
2022-09-28T18:56:11.653Z,99729.44
2022-09-28T18:58:39.923Z,99736.41
2022-09-28T19:01:29.016Z,99734.09
2022-09-28T19:03:58.477Z,99730.69
2022-09-28T19:06:25.164Z,99743.50
2022-09-28T19:08:53.546Z,99716.47
2022-09-28T19:11:23.563Z,99683.75
2022-09-28T19:13:50.684Z,99723.31
2022-09-28T19:16:20.955Z,99732.00
2022-09-28T19:18:48.042Z,99731.84
2022-09-28T19:21:15.341Z,99716.38
2022-09-28T19:23:46.929Z,99732.09
2022-09-28T19:26:38.663Z,99729.50
2022-09-28T19:29:05.318Z,99743.28
2022-09-28T19:31:35.321Z,99739.53
2022-09-28T19:34:03.547Z,99745.56
2022-09-28T19:36:30.628Z,99740.41
2022-09-28T19:39:02.883Z,99746.50
2022-09-28T19:41:43.467Z,99739.53
2022-09-28T19:44:26.223Z,99730.78
2022-09-28T19:47:12.541Z,99704.16
2022-09-28T19:49:40.753Z,99734.34
2022-09-28T19:52:17.177Z,99729.22
2022-09-28T19:54:57.406Z,99727.50
2022-09-28T19:57:30.740Z,99725.88
2022-09-28T20:00:02.078Z,99728.31
2022-09-28T20:02:29.709Z,99735.16
2022-09-28T20:04:56.393Z,99723.06
2022-09-28T20:07:23.067Z,99723.00
2022-09-28T20:09:49.623Z,99692.66
2022-09-28T20:12:16.274Z,99720.94
2022-09-28T20:14:42.932Z,99718.44
2022-09-28T20:17:09.510Z,99721.19
2022-09-28T20:19:36.557Z,99720.16
2022-09-28T20:22:03.629Z,99734.84
2022-09-28T20:24:31.436Z,99722.78
2022-09-28T20:26:58.249Z,99738.22
2022-09-28T20:29:25.010Z,99741.03
2022-09-28T20:31:52.036Z,99737.47
2022-09-28T20:34:20.553Z,99713.31
2022-09-28T20:36:47.960Z,99743.47
2022-09-28T20:39:14.567Z,99733.16
2022-09-28T20:41:41.335Z,99734.78
2022-09-28T20:44:08.064Z,99739.19
2022-09-28T20:46:35.859Z,99738.19
2022-09-28T20:49:03.502Z,99723.44
2022-09-28T20:51:30.474Z,99731.88
2022-09-28T20:53:58.070Z,99726.69
2022-09-28T20:56:27.117Z,99722.56
2022-09-28T20:58:54.528Z,99732.06
2022-09-28T21:01:23.745Z,99737.34
2022-09-28T21:03:52.214Z,99739.75
2022-09-28T21:06:20.473Z,99736.41
2022-09-28T21:08:47.076Z,99728.53
2022-09-28T21:11:14.628Z,99748.34
2022-09-28T21:13:42.964Z,99744.81
2022-09-28T21:16:11.614Z,99744.28
2022-09-28T21:18:39.308Z,99747.53
2022-09-28T21:21:11.690Z,99740.56
2022-09-28T21:23:38.381Z,99741.19
2022-09-28T21:26:07.501Z,99733.19
2022-09-28T21:28:36.010Z,99715.13
2022-09-28T21:31:06.290Z,99734.13
2022-09-28T21:33:34.087Z,99745.38
2022-09-28T21:36:06.358Z,99725.84
2022-09-28T21:38:34.135Z,99735.81
2022-09-28T21:41:00.854Z,99721.88
2022-09-28T21:43:28.865Z,99730.50
2022-09-28T21:45:56.387Z,99711.38
2022-09-28T21:48:25.199Z,99722.50
2022-09-28T21:51:02.105Z,99730.16
2022-09-28T21:53:35.170Z,99726.56
2022-09-28T21:56:03.434Z,99740.44
2022-09-28T21:58:33.362Z,99738.09
2022-09-28T22:01:03.061Z,99731.03
2022-09-28T22:03:31.620Z,99728.56
2022-09-28T22:05:58.348Z,99741.25
2022-09-28T22:08:25.376Z,99742.16
2022-09-28T22:11:06.895Z,99744.78
2022-09-28T22:13:39.308Z,99754.31
2022-09-28T22:16:06.181Z,99750.03
2022-09-28T22:18:34.175Z,99741.56
2022-09-28T22:21:09.962Z,99748.66
2022-09-28T22:23:37.908Z,99741.78
2022-09-28T22:26:09.778Z,99754.66
2022-09-28T22:28:36.816Z,99748.41
2022-09-28T22:31:04.110Z,99746.88
2022-09-28T22:33:30.839Z,99753.72
2022-09-28T22:35:57.541Z,99744.03
2022-09-28T22:38:25.060Z,99741.91
2022-09-28T22:40:56.111Z,99747.03
2022-09-28T22:43:25.758Z,99748.66
2022-09-28T22:46:13.346Z,99734.16
2022-09-28T22:48:40.206Z,99739.28
2022-09-28T22:51:07.404Z,99748.16
2022-09-28T22:53:35.356Z,99750.84
2022-09-28T22:56:06.799Z,99748.31
2022-09-28T22:58:34.217Z,99744.66
2022-09-28T23:01:30.846Z,99749.78
2022-09-28T23:03:58.438Z,99751.53
2022-09-28T23:06:26.788Z,99751.63
2022-09-28T23:08:54.816Z,99730.91
2022-09-28T23:11:21.871Z,99749.91
2022-09-28T23:13:52.836Z,99745.38
2022-09-28T23:16:20.991Z,99747.88
2022-09-28T23:18:49.278Z,99745.25
2022-09-28T23:21:18.641Z,99754.72
2022-09-28T23:23:46.674Z,99742.75
2022-09-28T23:26:16.707Z,99746.28
2022-09-28T23:28:44.101Z,99748.94
2022-09-28T23:31:14.827Z,99759.94
2022-09-28T23:33:42.010Z,99756.41
2022-09-28T23:36:09.451Z,99749.41
2022-09-28T23:38:36.118Z,99717.69
2022-09-28T23:41:02.884Z,99756.22
2022-09-28T23:43:29.548Z,99764.22
2022-09-28T23:45:56.163Z,99750.31
2022-09-28T23:48:22.721Z,99751.41
2022-09-28T23:50:49.336Z,99760.16
2022-09-28T23:53:15.993Z,99759.22
2022-09-28T23:55:43.049Z,99749.19
2022-09-28T23:58:11.111Z,99756.41
